Time;durP1;ratioP1;P1;durP2;ratioP2;P2;SDS_P1;SDS_P2;PMS_P1;PMS_P2;Temp;Humidity;BMP_temperature;BMP_pressure;BME280_temperature;BME280_humidity;BME280_pressure;Samples;Min_cycle;Max_cycle;Signal;HPM_P1;HPM_P2
2022/10/10 00:01:41;;;;;;;13.52;8.38;;;24.80;60.10;;;;;;7677386;22;80112;-46
2022/10/10 00:04:41;;;;;;;10.55;7.25;;;24.80;60.00;;;;;;7677861;22;80210;-46
2022/10/10 00:07:43;;;;;;;12.13;7.22;;;24.70;60.10;;;;;;7676586;22;80785;-49
2022/10/10 00:10:43;;;;;;;10.85;7.47;;;24.70;59.80;;;;;;7679471;22;81472;-47
2022/10/10 00:13:44;;;;;;;10.63;7.97;;;24.70;59.90;;;;;;7677934;22;80515;-47
2022/10/10 00:16:44;;;;;;;11.20;7.47;;;24.70;59.90;;;;;;7678894;22;80391;-54
2022/10/10 00:19:45;;;;;;;11.05;7.32;;;24.70;60.20;;;;;;7678115;22;80426;-53
2022/10/10 00:22:45;;;;;;;12.55;7.47;;;24.70;59.70;;;;;;7676742;22;80503;-49
2022/10/10 00:25:46;;;;;;;10.52;7.38;;;24.70;60.00;;;;;;7679482;22;80895;-50
2022/10/10 00:28:46;;;;;;;10.32;7.00;;;24.70;60.00;;;;;;7677474;22;81951;-53
2022/10/10 00:31:47;;;;;;;12.02;7.40;;;24.70;59.80;;;;;;7677678;22;81647;-51
2022/10/10 00:34:47;;;;;;;12.25;7.55;;;24.70;59.80;;;;;;7677620;22;80400;-47
2022/10/10 00:37:48;;;;;;;13.20;7.57;;;24.70;60.00;;;;;;7679416;22;81130;-47
2022/10/10 00:40:48;;;;;;;11.18;7.22;;;24.70;59.90;;;;;;7677255;22;81129;-48
2022/10/10 00:43:49;;;;;;;11.18;7.10;;;24.70;59.60;;;;;;7678018;22;81550;-47
2022/10/10 00:46:49;;;;;;;9.80;6.35;;;24.70;59.80;;;;;;7680190;22;80485;-48
2022/10/10 00:49:50;;;;;;;10.55;6.78;;;24.70;59.60;;;;;;7680726;22;80533;-46
2022/10/10 00:52:50;;;;;;;12.57;7.70;;;24.70;59.70;;;;;;7676692;22;80500;-46
2022/10/10 00:55:51;;;;;;;8.93;6.95;;;24.70;59.70;;;;;;7676371;22;80282;-51
2022/10/10 00:58:51;;;;;;;9.45;6.95;;;24.70;59.80;;;;;;7650521;22;83370;-45
2022/10/10 01:01:52;;;;;;;9.05;6.90;;;24.70;59.90;;;;;;7676609;22;80323;-47
2022/10/10 01:04:52;;;;;;;13.70;7.07;;;24.70;60.40;;;;;;7675752;22;81847;-49
2022/10/10 01:07:53;;;;;;;9.52;7.07;;;24.70;59.50;;;;;;7679572;22;80307;-50
2022/10/10 01:10:53;;;;;;;10.70;7.38;;;24.70;59.70;;;;;;7676016;22;80144;-54
2022/10/10 01:13:54;;;;;;;10.25;6.97;;;24.70;59.80;;;;;;7678304;22;80250;-52
2022/10/10 01:16:54;;;;;;;9.35;6.70;;;24.60;59.50;;;;;;7679067;22;80743;-51
2022/10/10 01:19:55;;;;;;;10.25;6.68;;;24.60;59.20;;;;;;7676218;22;80184;-49
2022/10/10 01:22:55;;;;;;;11.63;7.85;;;24.60;59.10;;;;;;7676228;22;81430;-51
2022/10/10 01:25:56;;;;;;;11.57;7.03;;;24.60;59.00;;;;;;7677247;22;80320;-52
2022/10/10 01:28:56;;;;;;;12.48;7.40;;;24.60;59.10;;;;;;7678723;22;80466;-53
2022/10/10 01:31:57;;;;;;;9.63;6.53;;;24.60;59.20;;;;;;7677212;22;80423;-52
2022/10/10 01:34:57;;;;;;;8.65;6.63;;;24.60;59.00;;;;;;7677520;22;81197;-54
2022/10/10 01:37:58;;;;;;;9.45;7.18;;;24.60;59.20;;;;;;7676759;22;80387;-52
2022/10/10 01:40:58;;;;;;;10.10;6.57;;;24.60;59.40;;;;;;7676503;22;80283;-52
2022/10/10 01:43:59;;;;;;;10.38;6.97;;;24.60;59.60;;;;;;7677896;22;81267;-49
2022/10/10 01:46:59;;;;;;;9.80;6.82;;;24.60;59.20;;;;;;7680073;22;80195;-48
2022/10/10 01:50:00;;;;;;;10.65;7.63;;;24.60;59.60;;;;;;7681764;22;80701;-48
2022/10/10 01:53:00;;;;;;;9.95;6.93;;;24.60;59.10;;;;;;7671155;22;81674;-51
2022/10/10 01:56:01;;;;;;;11.55;7.18;;;24.60;53.00;;;;;;7679930;22;81262;-50
2022/10/10 01:59:01;;;;;;;10.05;7.22;;;24.60;52.40;;;;;;7677749;22;80764;-48
2022/10/10 02:02:02;;;;;;;11.27;7.50;;;24.60;52.30;;;;;;7678659;22;80252;-48
2022/10/10 02:05:03;;;;;;;10.32;7.38;;;24.60;52.10;;;;;;7653788;22;81576;-48
2022/10/10 02:08:04;;;;;;;10.95;7.38;;;24.60;51.60;;;;;;7678669;22;80883;-46
2022/10/10 02:11:04;;;;;;;11.10;7.68;;;24.60;51.60;;;;;;7677867;22;81846;-48
2022/10/10 02:14:05;;;;;;;10.93;7.13;;;24.60;51.00;;;;;;7679666;22;80961;-50
2022/10/10 02:17:05;;;;;;;10.32;7.82;;;24.60;51.10;;;;;;7679219;22;80330;-48
2022/10/10 02:20:06;;;;;;;10.23;7.72;;;24.60;51.30;;;;;;7677493;22;80404;-48
2022/10/10 02:23:06;;;;;;;10.93;7.15;;;24.50;51.10;;;;;;7681405;22;80928;-45
2022/10/10 02:26:07;;;;;;;10.02;7.18;;;24.60;51.30;;;;;;7678380;22;81509;-47
2022/10/10 02:29:07;;;;;;;9.80;7.28;;;24.60;51.60;;;;;;7679744;22;80753;-47
2022/10/10 02:32:08;;;;;;;13.45;8.00;;;24.50;51.90;;;;;;7652440;22;82811;-49
2022/10/10 02:35:08;;;;;;;9.55;7.35;;;24.60;51.80;;;;;;7681725;22;80161;-48
2022/10/10 02:38:09;;;;;;;10.95;7.97;;;24.50;51.90;;;;;;7675602;22;80360;-50
2022/10/10 02:41:09;;;;;;;10.68;7.57;;;24.50;51.90;;;;;;7677779;22;80502;-47
2022/10/10 02:44:10;;;;;;;8.85;7.22;;;24.50;51.90;;;;;;7679324;22;80524;-49
2022/10/10 02:47:10;;;;;;;10.07;6.97;;;24.50;51.70;;;;;;7678747;22;80275;-48
2022/10/10 02:50:11;;;;;;;9.98;7.55;;;24.50;52.30;;;;;;7678199;22;81194;-47
2022/10/10 02:53:11;;;;;;;12.10;7.40;;;24.50;52.10;;;;;;7681116;22;80746;-49
2022/10/10 02:56:12;;;;;;;9.48;7.05;;;24.50;52.40;;;;;;7678540;22;80580;-48
2022/10/10 02:59:12;;;;;;;9.88;7.18;;;24.50;52.60;;;;;;7677291;22;81695;-49
2022/10/10 03:02:13;;;;;;;9.82;7.50;;;24.50;52.80;;;;;;7678061;22;80422;-48
2022/10/10 03:05:13;;;;;;;10.73;6.57;;;24.50;52.90;;;;;;7678299;22;80541;-48
2022/10/10 03:08:14;;;;;;;8.77;7.07;;;24.40;52.90;;;;;;7676795;22;80431;-49
2022/10/10 03:11:14;;;;;;;9.77;6.78;;;24.40;52.80;;;;;;7680861;22;80068;-47
2022/10/10 03:14:15;;;;;;;8.90;6.88;;;24.50;52.90;;;;;;7675701;22;81953;-45
2022/10/10 03:17:15;;;;;;;8.13;6.18;;;24.50;53.10;;;;;;7677159;22;80778;-47
2022/10/10 03:20:16;;;;;;;8.38;6.63;;;24.40;52.90;;;;;;7678684;22;81655;-50
2022/10/10 03:23:16;;;;;;;9.02;7.10;;;24.50;53.20;;;;;;7677640;22;80828;-49
2022/10/10 03:26:17;;;;;;;8.57;6.80;;;24.50;52.80;;;;;;7652505;22;83009;-52
2022/10/10 03:29:17;;;;;;;7.63;6.10;;;24.50;53.40;;;;;;7677778;22;80817;-48
2022/10/10 03:32:18;;;;;;;9.60;6.30;;;24.60;53.10;;;;;;7677465;22;81674;-53
2022/10/10 03:35:18;;;;;;;7.78;6.18;;;24.50;53.00;;;;;;7679265;22;80963;-47
2022/10/10 03:38:19;;;;;;;9.50;6.68;;;24.60;52.70;;;;;;7678637;22;80707;-55
2022/10/10 03:41:20;;;;;;;9.07;6.28;;;24.60;52.70;;;;;;7677642;22;80284;-50
2022/10/10 03:44:20;;;;;;;7.70;6.07;;;24.60;52.20;;;;;;7680489;22;81225;-53
2022/10/10 03:47:20;;;;;;;9.70;6.15;;;24.70;52.40;;;;;;7678015;22;80266;-51
2022/10/10 03:50:21;;;;;;;7.78;5.78;;;24.60;52.20;;;;;;7676945;22;81562;-53
2022/10/10 03:53:22;;;;;;;6.78;6.00;;;24.70;52.40;;;;;;7677296;22;80606;-53
2022/10/10 03:56:22;;;;;;;7.22;5.95;;;24.70;52.50;;;;;;7680068;22;80851;-48
2022/10/10 03:59:23;;;;;;;7.30;5.88;;;24.70;52.60;;;;;;7652823;22;81320;-50
2022/10/10 04:02:23;;;;;;;6.35;5.38;;;24.70;52.40;;;;;;7672562;22;80346;-51
2022/10/10 04:05:24;;;;;;;7.72;5.95;;;24.70;52.50;;;;;;7649372;22;81111;-51
2022/10/10 04:08:25;;;;;;;9.00;6.07;;;24.70;52.30;;;;;;7677717;22;80600;-53
2022/10/10 04:11:25;;;;;;;7.45;5.75;;;24.70;52.20;;;;;;7677231;22;80845;-49
2022/10/10 04:14:26;;;;;;;7.68;5.60;;;24.70;52.10;;;;;;7677419;22;80536;-52
2022/10/10 04:17:26;;;;;;;7.30;5.65;;;24.80;52.40;;;;;;7672397;22;80634;-48
2022/10/10 04:20:27;;;;;;;10.13;5.63;;;24.80;52.20;;;;;;7678018;22;81143;-51
2022/10/10 04:23:27;;;;;;;8.75;5.63;;;24.80;52.60;;;;;;7677614;22;80206;-53
2022/10/10 04:26:28;;;;;;;8.02;5.78;;;24.80;52.40;;;;;;7673152;22;81945;-52
2022/10/10 04:29:28;;;;;;;6.50;5.68;;;24.90;52.20;;;;;;7675462;22;80161;-54
2022/10/10 04:32:29;;;;;;;7.50;5.90;;;24.80;51.80;;;;;;7677826;22;80835;-54
2022/10/10 04:35:29;;;;;;;8.00;5.80;;;24.80;51.80;;;;;;7677543;22;79883;-57
2022/10/10 04:38:30;;;;;;;9.23;6.13;;;24.80;52.00;;;;;;7679717;22;80646;-50
2022/10/10 04:41:30;;;;;;;8.45;6.65;;;24.80;51.80;;;;;;7674048;22;80265;-52
2022/10/10 04:44:31;;;;;;;7.60;6.00;;;24.70;52.00;;;;;;7679609;22;80488;-56
2022/10/10 04:47:31;;;;;;;9.20;6.00;;;24.80;52.20;;;;;;7675248;22;80684;-53
2022/10/10 04:50:32;;;;;;;27.77;6.60;;;24.80;52.40;;;;;;7671157;22;86166;-56
2022/10/10 04:53:32;;;;;;;8.95;6.28;;;24.80;52.70;;;;;;7672211;22;81045;-55
2022/10/10 04:56:33;;;;;;;11.38;6.05;;;24.80;52.70;;;;;;7671607;22;80274;-56
2022/10/10 04:59:33;;;;;;;7.13;5.22;;;24.80;53.60;;;;;;7676004;22;80224;-54
2022/10/10 05:02:34;;;;;;;8.68;6.55;;;24.80;53.80;;;;;;7678060;22;80401;-55
2022/10/10 05:05:34;;;;;;;7.43;5.95;;;24.80;53.80;;;;;;7674124;22;80263;-55
2022/10/10 05:08:35;;;;;;;8.05;6.07;;;24.80;53.80;;;;;;7677072;22;80199;-57
2022/10/10 05:11:35;;;;;;;8.57;6.30;;;24.70;53.80;;;;;;7676396;22;80500;-56
2022/10/10 05:14:36;;;;;;;7.63;5.80;;;24.80;53.10;;;;;;7673978;22;81379;-65
2022/10/10 05:17:37;;;;;;;9.68;6.63;;;24.70;53.30;;;;;;7673897;22;82298;-55
2022/10/10 05:20:37;;;;;;;7.90;6.10;;;24.70;53.20;;;;;;7677412;22;80830;-54
2022/10/10 05:23:40;;;;;;;7.28;5.55;;;24.70;53.30;;;;;;7668547;22;80325;-54
2022/10/10 05:26:40;;;;;;;8.98;6.82;;;24.70;53.40;;;;;;7645818;22;81155;-55
2022/10/10 05:29:41;;;;;;;8.32;6.43;;;24.70;53.40;;;;;;7664135;22;80706;-58
2022/10/10 05:32:41;;;;;;;8.57;6.53;;;24.70;53.40;;;;;;7671778;22;80323;-60
2022/10/10 05:35:42;;;;;;;8.68;6.10;;;24.70;53.10;;;;;;7672620;22;87210;-51
2022/10/10 05:38:43;;;;;;;9.82;6.88;;;24.70;53.20;;;;;;7675547;22;80323;-54
2022/10/10 05:41:43;;;;;;;8.82;6.05;;;24.60;53.00;;;;;;7676006;22;80923;-55
2022/10/10 05:44:44;;;;;;;15.52;6.57;;;24.60;52.70;;;;;;7674128;22;81112;-54
2022/10/10 05:47:45;;;;;;;12.30;6.63;;;24.60;52.80;;;;;;7674592;22;80881;-55
2022/10/10 05:50:45;;;;;;;8.85;6.20;;;24.50;52.50;;;;;;7674438;22;80929;-51
2022/10/10 05:53:46;;;;;;;10.05;6.88;;;24.50;52.60;;;;;;7672361;22;80766;-55
2022/10/10 05:56:46;;;;;;;9.23;6.60;;;24.50;52.50;;;;;;7674424;22;80415;-54
2022/10/10 05:59:47;;;;;;;9.05;6.85;;;24.50;52.20;;;;;;7677732;22;81180;-53
2022/10/10 06:02:47;;;;;;;8.15;6.72;;;24.50;51.70;;;;;;7677965;22;81300;-56
2022/10/10 06:05:48;;;;;;;10.15;6.88;;;24.50;51.60;;;;;;7682034;22;80323;-55
2022/10/10 06:08:49;;;;;;;8.75;7.22;;;24.40;51.10;;;;;;7670173;22;81228;-53
2022/10/10 06:11:49;;;;;;;12.50;7.35;;;24.40;51.30;;;;;;7677304;22;80312;-55
2022/10/10 06:14:50;;;;;;;11.57;7.18;;;24.40;51.20;;;;;;7666725;22;81046;-53
2022/10/10 06:17:50;;;;;;;14.98;7.97;;;24.40;51.00;;;;;;7670903;22;81123;-53
2022/10/10 06:20:51;;;;;;;11.57;8.18;;;24.40;51.40;;;;;;7674060;22;80564;-55
2022/10/10 06:23:51;;;;;;;11.73;7.63;;;24.40;50.80;;;;;;7677903;22;80232;-52
2022/10/10 06:26:52;;;;;;;11.23;8.02;;;24.30;51.00;;;;;;7678416;22;80967;-53
2022/10/10 06:29:52;;;;;;;12.90;8.57;;;24.40;50.60;;;;;;7679185;22;80294;-53
2022/10/10 06:32:53;;;;;;;10.70;7.75;;;24.40;50.70;;;;;;7669461;22;81124;-52
2022/10/10 06:35:53;;;;;;;13.90;8.30;;;24.30;49.90;;;;;;7667349;22;80973;-48
2022/10/10 06:38:54;;;;;;;13.73;8.63;;;24.20;50.00;;;;;;7658336;22;80785;-54
2022/10/10 06:41:54;;;;;;;13.18;8.48;;;24.10;50.00;;;;;;7660266;22;80276;-59
2022/10/10 06:44:55;;;;;;;11.57;8.20;;;24.10;50.00;;;;;;7679349;22;80709;-60
2022/10/10 06:47:55;;;;;;;12.75;8.23;;;24.10;50.00;;;;;;7653188;22;81688;-57
2022/10/10 06:50:56;;;;;;;17.58;7.93;;;24.10;50.40;;;;;;7678699;22;80762;-55
2022/10/10 06:53:56;;;;;;;14.02;7.95;;;24.10;50.00;;;;;;7677222;22;80227;-56
2022/10/10 06:56:57;;;;;;;20.88;12.35;;;24.00;50.30;;;;;;7673058;22;81160;-57
2022/10/10 06:59:58;;;;;;;72.50;33.63;;;24.00;50.30;;;;;;7678406;22;82879;-54
2022/10/10 07:02:58;;;;;;;134.23;65.68;;;24.00;50.40;;;;;;7673478;22;83050;-54
2022/10/10 07:05:59;;;;;;;116.97;58.33;;;24.00;50.50;;;;;;7669142;22;83914;-56
2022/10/10 07:08:59;;;;;;;89.35;43.15;;;24.10;50.60;;;;;;7661593;22;83108;-56
2022/10/10 07:12:01;;;;;;;60.38;32.55;;;24.00;50.20;;;;;;7660666;22;88854;-54
2022/10/10 07:15:02;;;;;;;53.45;27.70;;;24.00;50.30;;;;;;7671747;22;83539;-54
2022/10/10 07:18:03;;;;;;;40.22;22.80;;;24.10;50.20;;;;;;7678757;22;83210;-56
2022/10/10 07:21:03;;;;;;;39.88;20.33;;;24.10;50.10;;;;;;7676194;22;83171;-57
2022/10/10 07:24:04;;;;;;;31.15;17.30;;;24.10;50.10;;;;;;7669169;22;84249;-56
2022/10/10 07:27:04;;;;;;;24.85;14.57;;;24.10;50.10;;;;;;7638793;22;84386;-56
2022/10/10 07:30:05;;;;;;;24.38;13.15;;;24.10;50.20;;;;;;7671558;22;84396;-56
2022/10/10 07:33:05;;;;;;;21.77;12.55;;;24.10;50.20;;;;;;7675942;22;82910;-59
2022/10/10 07:36:06;;;;;;;22.02;10.77;;;24.20;50.10;;;;;;7677863;22;83896;-57
2022/10/10 07:39:06;;;;;;;17.75;10.50;;;24.20;49.70;;;;;;7670699;22;83539;-54
2022/10/10 07:42:07;;;;;;;15.75;9.85;;;24.20;50.00;;;;;;7669954;22;83187;-54
2022/10/10 07:45:09;;;;;;;17.77;9.68;;;24.20;50.00;;;;;;7672158;22;81663;-58
2022/10/10 07:48:10;;;;;;;16.67;8.70;;;24.30;50.00;;;;;;7682301;22;81386;-56
2022/10/10 07:51:10;;;;;;;14.35;9.30;;;24.30;50.00;;;;;;7680685;22;81781;-54
2022/10/10 07:54:11;;;;;;;14.13;8.32;;;24.40;50.10;;;;;;7679318;22;80852;-51
2022/10/10 07:57:11;;;;;;;15.05;8.02;;;24.40;50.20;;;;;;7678125;22;80972;-56
2022/10/10 08:00:12;;;;;;;16.52;8.07;;;24.40;50.00;;;;;;7682230;22;81551;-53
2022/10/10 08:03:12;;;;;;;12.88;7.70;;;24.50;50.10;;;;;;7675312;22;81797;-55
2022/10/10 08:06:13;;;;;;;10.63;6.82;;;24.50;50.10;;;;;;7675351;22;80812;-58
2022/10/10 08:09:13;;;;;;;13.95;7.55;;;24.60;50.30;;;;;;7661198;22;82176;-57
2022/10/10 08:12:14;;;;;;;12.43;6.70;;;24.60;50.10;;;;;;7637298;22;81566;-57
2022/10/10 08:15:15;;;;;;;11.98;6.63;;;24.70;50.00;;;;;;7662553;22;82400;-57
2022/10/10 08:18:15;;;;;;;10.82;6.78;;;24.80;50.00;;;;;;7665041;22;81197;-57
2022/10/10 08:21:15;;;;;;;11.52;6.20;;;24.90;50.20;;;;;;7665344;22;80180;-57
2022/10/10 08:24:16;;;;;;;10.52;6.18;;;24.90;50.10;;;;;;7662901;22;80780;-58
2022/10/10 08:27:18;;;;;;;10.75;6.55;;;25.00;49.90;;;;;;7648784;22;81709;-55
2022/10/10 08:30:18;;;;;;;11.27;5.40;;;25.00;50.10;;;;;;7674215;22;80318;-58
2022/10/10 08:33:19;;;;;;;11.88;5.63;;;25.10;50.20;;;;;;7677613;22;80308;-57
2022/10/10 08:36:19;;;;;;;7.07;5.10;;;25.10;50.20;;;;;;7676558;22;80913;-56
2022/10/10 08:39:20;;;;;;;10.18;5.55;;;25.10;50.40;;;;;;7680835;22;81380;-56
2022/10/10 08:42:20;;;;;;;10.75;5.90;;;25.20;50.50;;;;;;7680542;22;80707;-58
2022/10/10 08:45:21;;;;;;;10.07;5.20;;;25.20;50.20;;;;;;7678043;22;80653;-58
2022/10/10 08:48:21;;;;;;;9.93;4.97;;;25.20;49.90;;;;;;7683180;22;80288;-57
2022/10/10 08:51:22;;;;;;;9.70;4.72;;;25.30;49.80;;;;;;7677119;22;80466;-54
2022/10/10 08:54:23;;;;;;;8.43;5.10;;;25.30;49.90;;;;;;7679342;22;80364;-54
2022/10/10 08:57:23;;;;;;;9.10;5.10;;;25.30;50.10;;;;;;7682635;22;81656;-52
2022/10/10 09:00:24;;;;;;;10.32;5.20;;;25.40;50.00;;;;;;7678507;22;80070;-56
2022/10/10 09:03:24;;;;;;;6.78;4.20;;;25.40;50.10;;;;;;7681961;22;80276;-53
2022/10/10 09:06:25;;;;;;;8.05;4.55;;;25.40;50.20;;;;;;7681097;22;81606;-56
2022/10/10 09:09:26;;;;;;;8.40;3.92;;;25.50;50.00;;;;;;7683944;22;80064;-60
2022/10/10 09:12:27;;;;;;;7.43;4.47;;;25.50;50.00;;;;;;7681594;22;80722;-60
2022/10/10 09:15:27;;;;;;;7.57;4.40;;;25.50;49.90;;;;;;7681819;22;81406;-61
2022/10/10 09:18:28;;;;;;;9.38;4.68;;;25.60;50.00;;;;;;7683189;22;80657;-61
2022/10/10 09:21:28;;;;;;;6.20;3.70;;;25.70;49.90;;;;;;7683213;22;80393;-60
2022/10/10 09:24:31;;;;;;;6.75;4.20;;;25.70;49.70;;;;;;7682124;22;80910;-61
2022/10/10 09:27:31;;;;;;;7.05;3.90;;;25.70;49.80;;;;;;7681680;22;82018;-57
2022/10/10 09:30:32;;;;;;;13.25;3.92;;;25.70;49.40;;;;;;7682291;22;80399;-49
2022/10/10 09:33:32;;;;;;;9.18;4.25;;;25.80;49.90;;;;;;7674680;22;81987;-57
2022/10/10 09:36:33;;;;;;;7.25;4.25;;;25.80;50.40;;;;;;7680214;22;81501;-51
2022/10/10 09:39:33;;;;;;;10.60;4.68;;;25.90;50.10;;;;;;7684021;22;80359;-52
2022/10/10 09:42:34;;;;;;;8.15;3.67;;;25.80;49.70;;;;;;7651208;22;83217;-54
2022/10/10 09:45:34;;;;;;;5.10;3.50;;;25.90;50.30;;;;;;7679859;22;80146;-54
2022/10/10 09:48:35;;;;;;;5.15;3.60;;;25.90;50.30;;;;;;7683388;22;81142;-58
2022/10/10 09:51:35;;;;;;;5.53;3.85;;;26.00;50.50;;;;;;7676313;22;80899;-58
2022/10/10 09:54:36;;;;;;;5.20;3.35;;;26.00;49.90;;;;;;7679919;22;80761;-58
2022/10/10 09:57:36;;;;;;;7.03;3.45;;;26.10;50.20;;;;;;7681650;22;81531;-59
2022/10/10 10:00:37;;;;;;;7.38;3.53;;;26.20;49.70;;;;;;7647436;22;81492;-58
2022/10/10 10:03:37;;;;;;;8.18;3.08;;;26.20;49.80;;;;;;7678835;22;81802;-59
2022/10/10 10:06:38;;;;;;;5.65;3.33;;;26.20;50.30;;;;;;7676479;22;80851;-61
2022/10/10 10:09:38;;;;;;;7.82;3.60;;;26.20;51.50;;;;;;7654752;22;81618;-61
2022/10/10 10:12:39;;;;;;;8.00;3.50;;;26.30;50.80;;;;;;7679416;22;81624;-59
2022/10/10 10:15:39;;;;;;;6.68;4.20;;;26.30;50.90;;;;;;7679695;22;80594;-57
2022/10/10 10:18:40;;;;;;;5.10;3.53;;;26.40;52.50;;;;;;7682095;22;80403;-58
2022/10/10 10:21:40;;;;;;;4.50;3.00;;;26.50;52.80;;;;;;7680696;22;80357;-58
2022/10/10 10:24:41;;;;;;;6.28;3.08;;;26.50;52.90;;;;;;7683207;22;79962;-58
2022/10/10 10:27:41;;;;;;;5.68;3.97;;;26.50;53.30;;;;;;7682805;22;80844;-57
2022/10/10 10:30:42;;;;;;;5.00;3.15;;;26.50;51.00;;;;;;7680221;22;80307;-56
2022/10/10 10:33:42;;;;;;;8.23;3.33;;;26.50;51.00;;;;;;7679089;22;81488;-57
2022/10/10 10:36:45;;;;;;;4.47;3.28;;;26.50;51.00;;;;;;7683696;22;80188;-58
2022/10/10 10:39:45;;;;;;;12.82;3.00;;;26.60;51.00;;;;;;7676184;22;80582;-58
2022/10/10 10:42:46;;;;;;;8.43;3.70;;;26.70;51.10;;;;;;7679051;22;80379;-56
2022/10/10 10:45:46;;;;;;;11.65;3.63;;;26.80;50.60;;;;;;7678734;22;81047;-57
2022/10/10 10:48:47;;;;;;;9.55;3.67;;;26.80;50.70;;;;;;7656982;22;80185;-57
2022/10/10 10:51:47;;;;;;;8.85;3.53;;;26.80;51.10;;;;;;7678906;22;81582;-59
2022/10/10 10:54:48;;;;;;;4.55;3.03;;;26.90;51.10;;;;;;7680059;22;81237;-57
2022/10/10 10:57:48;;;;;;;8.15;2.90;;;26.90;50.80;;;;;;7680376;22;80394;-59
2022/10/10 11:00:49;;;;;;;5.05;3.03;;;26.90;51.00;;;;;;7684417;22;80466;-58
2022/10/10 11:03:49;;;;;;;6.10;3.65;;;26.90;50.40;;;;;;7680052;22;80881;-57
2022/10/10 11:06:50;;;;;;;10.57;3.28;;;27.00;50.10;;;;;;7674344;22;80363;-57
2022/10/10 11:09:50;;;;;;;6.90;3.50;;;27.00;51.30;;;;;;7673977;22;80372;-57
2022/10/10 11:12:51;;;;;;;45.00;18.08;;;27.00;51.10;;;;;;7676204;22;80252;-58
2022/10/10 11:15:51;;;;;;;167.07;67.43;;;27.00;50.20;;;;;;7677576;22;82997;-59
2022/10/10 11:18:52;;;;;;;361.95;146.25;;;27.00;50.90;;;;;;7669013;22;82738;-59
2022/10/10 11:21:52;;;;;;;611.83;282.10;;;27.10;50.60;;;;;;7643628;22;85804;-59
2022/10/10 11:24:53;;;;;;;708.58;345.30;;;27.20;50.70;;;;;;7674317;22;85955;-57
2022/10/10 11:27:53;;;;;;;611.20;280.88;;;27.30;50.80;;;;;;7666042;22;87114;-59
2022/10/10 11:30:54;;;;;;;557.50;247.85;;;27.20;50.20;;;;;;7670625;22;85379;-58
2022/10/10 11:33:54;;;;;;;523.17;232.50;;;27.30;50.90;;;;;;7673535;22;85222;-59
2022/10/10 11:36:55;;;;;;;463.63;191.40;;;27.30;50.70;;;;;;7663006;22;86247;-58
2022/10/10 11:39:55;;;;;;;409.95;170.57;;;27.30;50.10;;;;;;7674761;22;85550;-59
2022/10/10 11:42:56;;;;;;;304.70;127.70;;;27.30;50.00;;;;;;7674101;22;85334;-61
2022/10/10 11:45:56;;;;;;;260.42;109.50;;;27.30;50.30;;;;;;7671357;22;85568;-57
2022/10/10 11:48:57;;;;;;;220.38;92.07;;;27.30;50.20;;;;;;7675346;22;85706;-57
2022/10/10 11:51:57;;;;;;;205.00;88.28;;;27.30;50.90;;;;;;7676662;22;85219;-59
2022/10/10 11:54:58;;;;;;;202.23;84.15;;;27.40;50.50;;;;;;7670470;22;83054;-58
2022/10/10 11:57:58;;;;;;;170.48;73.60;;;27.40;50.40;;;;;;7675792;22;82928;-58
2022/10/10 12:00:59;;;;;;;165.20;68.85;;;27.40;50.00;;;;;;7670043;22;83018;-58
2022/10/10 12:03:59;;;;;;;129.75;55.75;;;27.40;49.70;;;;;;7671820;22;83694;-58
2022/10/10 12:07:00;;;;;;;111.47;47.15;;;27.40;49.60;;;;;;7671335;22;84568;-59
2022/10/10 12:10:00;;;;;;;112.32;47.00;;;27.40;49.50;;;;;;7645231;22;83099;-59
2022/10/10 12:13:01;;;;;;;99.00;42.97;;;27.40;49.70;;;;;;7671329;22;83258;-56
2022/10/10 12:16:01;;;;;;;82.05;37.35;;;27.40;49.20;;;;;;7669227;22;83287;-57
2022/10/10 12:19:02;;;;;;;75.30;32.58;;;27.40;49.70;;;;;;7669538;22;83766;-54
2022/10/10 12:22:04;;;;;;;83.07;34.80;;;27.40;48.90;;;;;;7671208;22;83046;-56
2022/10/10 12:25:04;;;;;;;75.93;30.75;;;27.40;49.70;;;;;;7673059;22;84188;-55
2022/10/10 12:28:05;;;;;;;64.93;27.38;;;27.50;49.80;;;;;;7674583;22;83000;-55
2022/10/10 12:31:05;;;;;;;55.30;25.38;;;27.50;49.90;;;;;;7676129;22;84243;-54
2022/10/10 12:34:06;;;;;;;50.17;23.88;;;27.40;49.70;;;;;;7677290;22;83073;-65
2022/10/10 12:37:06;;;;;;;47.47;21.02;;;27.50;49.40;;;;;;7678196;22;83457;-61
2022/10/10 12:40:07;;;;;;;36.78;16.95;;;27.40;49.00;;;;;;7676161;22;82909;-56
2022/10/10 12:43:07;;;;;;;34.25;13.25;;;27.40;49.00;;;;;;7678071;22;83388;-55
2022/10/10 12:46:08;;;;;;;27.27;12.40;;;27.30;48.50;;;;;;7673475;22;84670;-53
2022/10/10 12:49:09;;;;;;;20.30;10.60;;;27.40;48.90;;;;;;7669539;22;82912;-55
2022/10/10 12:52:09;;;;;;;19.70;11.02;;;27.30;48.70;;;;;;7669801;22;83758;-58
2022/10/10 12:55:10;;;;;;;22.33;10.20;;;27.30;48.50;;;;;;7672066;22;83071;-58
2022/10/10 12:58:10;;;;;;;17.75;10.15;;;27.30;48.60;;;;;;7669005;22;83050;-56
2022/10/10 13:01:11;;;;;;;21.20;8.55;;;27.30;48.80;;;;;;7670689;22;84495;-55
2022/10/10 13:04:11;;;;;;;16.33;8.43;;;27.30;48.50;;;;;;7653782;22;84359;-58
2022/10/10 13:07:11;;;;;;;16.33;7.65;;;27.30;48.70;;;;;;7652709;22;81392;-59
2022/10/10 13:10:12;;;;;;;17.20;7.00;;;27.30;48.40;;;;;;7682943;22;80523;-55
2022/10/10 13:13:12;;;;;;;16.17;6.25;;;27.30;48.30;;;;;;7675170;22;81092;-54
2022/10/10 13:16:13;;;;;;;13.50;6.47;;;27.30;48.70;;;;;;7677401;22;81320;-57
2022/10/10 13:19:14;;;;;;;12.38;6.10;;;27.30;48.70;;;;;;7673846;22;80427;-57
2022/10/10 13:22:14;;;;;;;13.05;6.45;;;27.40;48.70;;;;;;7673843;22;80316;-56
2022/10/10 13:25:15;;;;;;;9.73;5.63;;;27.40;48.70;;;;;;7679431;22;81352;-57
2022/10/10 13:28:15;;;;;;;10.57;5.43;;;27.40;49.00;;;;;;7678136;22;80877;-58
2022/10/10 13:31:16;;;;;;;13.98;5.68;;;27.40;48.90;;;;;;7679958;22;81751;-58
2022/10/10 13:34:16;;;;;;;9.35;5.25;;;27.40;48.80;;;;;;7677746;22;80808;-58
2022/10/10 13:37:17;;;;;;;11.23;5.60;;;27.40;48.90;;;;;;7679602;22;80863;-59
2022/10/10 13:40:17;;;;;;;6.78;4.50;;;27.40;48.90;;;;;;7682454;22;80807;-56
2022/10/10 13:43:18;;;;;;;8.77;4.68;;;27.40;48.90;;;;;;7674364;22;80997;-57
2022/10/10 13:46:19;;;;;;;7.50;4.40;;;27.40;48.90;;;;;;7670728;22;81046;-57
2022/10/10 13:49:19;;;;;;;7.47;4.10;;;27.40;49.00;;;;;;7679594;22;80381;-57
2022/10/10 13:52:20;;;;;;;7.38;3.92;;;27.40;48.90;;;;;;7633619;22;80932;-55
2022/10/10 13:55:20;;;;;;;7.15;3.85;;;27.40;48.90;;;;;;7680934;22;80121;-57
2022/10/10 13:58:21;;;;;;;6.70;3.78;;;27.40;48.60;;;;;;7678207;22;81209;-58
2022/10/10 14:01:22;;;;;;;5.80;3.65;;;27.40;48.50;;;;;;7649846;22;83750;-57
2022/10/10 14:04:22;;;;;;;9.48;3.63;;;27.30;48.70;;;;;;7675113;22;80736;-56
2022/10/10 14:07:23;;;;;;;8.98;3.60;;;27.30;48.80;;;;;;7673309;22;80504;-54
2022/10/10 14:10:23;;;;;;;7.80;3.50;;;27.30;48.80;;;;;;7676703;22;80432;-52
2022/10/10 14:13:24;;;;;;;10.48;3.95;;;27.30;48.60;;;;;;7679558;22;80765;-53
2022/10/10 14:16:25;;;;;;;8.05;3.60;;;27.30;48.40;;;;;;7678871;22;81402;-54
2022/10/10 14:19:25;;;;;;;5.47;3.53;;;27.30;49.00;;;;;;7681146;22;80571;-52
2022/10/10 14:22:26;;;;;;;5.35;2.70;;;27.30;48.90;;;;;;7679757;22;80381;-57
2022/10/10 14:25:27;;;;;;;6.75;3.67;;;27.30;49.00;;;;;;7673347;22;81617;-57
2022/10/10 14:28:27;;;;;;;7.80;3.47;;;27.20;48.50;;;;;;7650489;22;80562;-57
2022/10/10 14:31:28;;;;;;;6.07;3.33;;;27.20;48.40;;;;;;7682048;22;79953;-58
2022/10/10 14:34:28;;;;;;;7.10;3.20;;;27.10;48.90;;;;;;7678830;22;80642;-56
2022/10/10 14:37:30;;;;;;;7.78;3.30;;;27.10;48.60;;;;;;7681404;22;80206;-58
2022/10/10 14:40:30;;;;;;;4.80;3.20;;;27.10;48.40;;;;;;7673887;22;81134;-54
2022/10/10 14:43:31;;;;;;;4.63;3.42;;;27.20;48.40;;;;;;7680382;22;81060;-53
2022/10/10 14:46:31;;;;;;;4.43;3.30;;;27.30;48.10;;;;;;7677364;22;81505;-58
2022/10/10 14:49:32;;;;;;;5.18;3.47;;;27.30;48.30;;;;;;7673499;22;80473;-53
2022/10/10 14:52:32;;;;;;;4.82;2.90;;;27.20;48.40;;;;;;7672953;22;81112;-54
2022/10/10 14:55:33;;;;;;;3.33;2.83;;;27.20;48.50;;;;;;7680236;22;80855;-55
2022/10/10 14:58:33;;;;;;;8.80;3.40;;;27.10;48.60;;;;;;7678781;22;80207;-58
2022/10/10 15:01:34;;;;;;;6.35;3.60;;;27.10;48.80;;;;;;7679492;22;80351;-56
2022/10/10 15:04:34;;;;;;;7.97;3.95;;;27.10;48.90;;;;;;7678771;22;80199;-57
2022/10/10 15:07:35;;;;;;;4.18;2.85;;;27.10;49.00;;;;;;7651488;22;81127;-58
2022/10/10 15:10:36;;;;;;;6.78;3.45;;;27.00;49.20;;;;;;7674940;22;80404;-58
2022/10/10 15:13:38;;;;;;;9.55;3.25;;;26.90;49.10;;;;;;7681901;22;80442;-57
2022/10/10 15:16:38;;;;;;;4.93;3.45;;;26.90;49.20;;;;;;7680847;22;81793;-53
2022/10/10 15:19:39;;;;;;;12.02;3.78;;;26.80;49.40;;;;;;7680968;22;80307;-58
2022/10/10 15:22:39;;;;;;;6.40;3.47;;;26.70;49.40;;;;;;7680024;22;80695;-57
2022/10/10 15:25:40;;;;;;;4.90;3.00;;;26.70;49.60;;;;;;7682494;22;80189;-56
2022/10/10 15:28:40;;;;;;;4.75;3.22;;;26.70;49.60;;;;;;7676925;22;81244;-55